< < Back
Terminal Aerodrome Forecast


Current Version              Previous Versions:   1  2  3  4  5  6  7  8  9  

Terminal Aerodrome Forecast

697
FTUS42 KGSP 211100
TAFHKY
TAF
KHKY 211123Z 2112/2212 36003KT P6SM BKN250
     FM211400 32004KT P6SM FEW060 SCT250
     FM212100 28003KT P6SM SCT060 BKN250 PROB30 2121/2123 4SM TSRA
      BKN040CB
     FM212300 00000KT P6SM SCT250=



Latest METAR

312
SAUS70 KWBC 211600 RRD
MTRHKY
METAR KHKY 211553Z VRB04KT 10SM CLR 30/18 A3014 RMK AO2 SLP183
T03000183


USA.gov is the U.S. government's official web portal to all federal, state and local government web resources and services.